Monroe, LA (71203)

12:16 PM CDT on September 05, 2015 (GMT -0500)
Swartz | | Change Station
CLOSE
Current Station
Personal Weather Station
Location: Monroe, LA
Elevation: 98 ft
Nearby Weather Stations

Elev 98 ft 32.56 °N, 92.02 °W | Updated 24 seconds ago

Clear
Clear
93.7 °F
Feels Like 102 °F
N
0.2
Wind Variable Wind from NW
Gusts 2.5 mph

Today
High -- | Low -- °F
--% Chance of Precip.
Yesterday
High -- | Low -- °F
Precip. -- in
6:45 AM 7:27 PM
Waning Gibbous, 47% visible
Pressure 30.04 in
Visibility 10.0 miles
Clouds Clear
Heat Index 102 °F
Dew Point 72 °F
Humidity 49%
Rainfall 0.00 in
Snow Depth Not available.
UV 6.0 out of 12
Pollen 9.50 out of 12
Air Quality Not available.
Flu Activity Not available.
METAR KMLU 051653Z 01003KT 10SM CLR 34/23 A3004 RMK AO2 SLP171 T03440228
Pressure 30.04 in
Visibility 10.0 miles
Clouds Clear
Heat Index 102 °F
Dew Point 72 °F
Humidity 49%
Rainfall 0.00 in
Snow Depth Not available.
UV 6.0 out of 12
Pollen 9.50 out of 12
Air Quality Not available.
Flu Activity Not available.
METAR KMLU 051653Z 01003KT 10SM CLR 34/23 A3004 RMK AO2 SLP171 T03440228
Nowcast | as of 12:09 PM CDT on September 5, 2015

Through 215 PM CDT...look for isolated showers and thunderstorms to develop over the four state region with a very slow drift north. Rainfall amounts will be light.

×

10-Day Weather Forecast

×

Almanac

Astronomy

Sep. 05, 2015 Rise Set
Actual Time
Civil Twilight
Nautical Twilight
Astronomical Twilight
Moon
Length of Visible Light
Length of Day
Tomorrow will be .
, % of the Moon is Illuminated

Today's Extremes

State Highs State Lows

Community

WunderPhotos

Upload Photos

1,852,504 photos uploaded!

WunderBlogs® & News

Nearby

Air Quality

  Air Quality AQ Index Pollutant
Not available.

Snow Depth

Station Depth Elevation

Earthquake Activity

City Distance Mag. Time & Date
Minimum magnitude displayed is 2.5.

Coastal Water Temperatures

Place Temperature

Stations

Nearby Weather Stations

Station Location Temp. Windchill Dew Point Humidity Wind Precip. Elev Updated Type